Time;durP1;ratioP1;P1;durP2;ratioP2;P2;SDS_P1;SDS_P2;PMS_P1;PMS_P2;Temp;Humidity;BMP_temperature;BMP_pressure;BME280_temperature;BME280_humidity;BME280_pressure;Samples;Min_cycle;Max_cycle;Signal;HPM_P1;HPM_P2
2022/11/14 00:00:57;;;;;;;40.40;25.17;;;;;;;8.73;57.50;99997.81;4992317;28;20052;-60
2022/11/14 00:03:24;;;;;;;42.83;24.77;;;;;;;8.70;57.41;99993.56;4992513;28;20082;-60
2022/11/14 00:05:50;;;;;;;41.22;25.00;;;;;;;8.70;57.51;99990.06;4992221;28;20097;-59
2022/11/14 00:08:24;;;;;;;43.30;25.05;;;;;;;8.66;58.19;99992.00;4992610;28;20046;-59
2022/11/14 00:10:51;;;;;;;39.67;24.33;;;;;;;8.64;57.38;99996.47;4992312;28;20057;-59
2022/11/14 00:13:18;;;;;;;40.88;24.25;;;;;;;8.60;57.15;99984.41;4992317;28;20046;-60
2022/11/14 00:15:49;;;;;;;40.10;23.73;;;;;;;8.56;58.07;99974.97;4991908;28;20046;-60
2022/11/14 00:18:16;;;;;;;39.08;23.52;;;;;;;8.53;57.38;99981.22;4992244;28;20046;-60
2022/11/14 00:20:46;;;;;;;41.55;24.02;;;;;;;8.49;57.42;99974.38;4992227;28;20066;-61
2022/11/14 00:23:12;;;;;;;42.05;25.23;;;;;;;8.43;57.15;99962.38;4992431;28;20137;-59
2022/11/14 00:25:39;;;;;;;39.80;24.77;;;;;;;8.41;57.24;99960.75;4992300;28;20054;-62
2022/11/14 00:28:05;;;;;;;39.13;23.42;;;;;;;8.36;57.31;99958.31;4990847;28;20438;-62
2022/11/14 00:30:32;;;;;;;43.38;25.38;;;;;;;8.31;57.13;99960.28;4989502;28;20110;-59
2022/11/14 00:32:58;;;;;;;38.58;23.20;;;;;;;8.27;57.25;99954.34;4991836;28;20048;-60
2022/11/14 00:35:25;;;;;;;41.05;23.52;;;;;;;8.21;57.25;99942.34;4990769;28;20054;-59
2022/11/14 00:37:51;;;;;;;42.28;24.27;;;;;;;8.17;57.30;99947.78;4990861;28;20762;-59
2022/11/14 00:40:18;;;;;;;41.38;24.55;;;;;;;8.11;57.51;99941.03;4991891;28;20060;-60
2022/11/14 00:42:44;;;;;;;41.70;25.05;;;;;;;8.05;57.46;99939.56;4991930;28;20046;-60
2022/11/14 00:45:11;;;;;;;40.17;24.13;;;;;;;8.00;57.57;99931.00;4991565;28;20048;-59
2022/11/14 00:47:37;;;;;;;40.58;23.90;;;;;;;7.95;57.38;99925.13;4985661;28;20050;-60
2022/11/14 00:50:05;;;;;;;40.92;23.55;;;;;;;7.90;57.73;99935.81;4980755;28;20058;-61
2022/11/14 00:52:31;;;;;;;39.10;23.83;;;;;;;7.87;57.57;99932.47;4972364;28;20138;-60
2022/11/14 00:54:58;;;;;;;42.03;25.33;;;;;;;7.83;57.98;99939.63;4972087;28;20051;-60
2022/11/14 00:57:24;;;;;;;42.85;24.40;;;;;;;7.79;58.14;99930.19;4970782;28;20121;-59
2022/11/14 00:59:54;;;;;;;40.35;24.52;;;;;;;7.76;57.72;99931.16;4972506;28;20050;-60
2022/11/14 01:02:21;;;;;;;41.13;24.17;;;;;;;7.76;57.97;99935.53;4972202;28;20113;-60
2022/11/14 01:04:48;;;;;;;39.03;23.02;;;;;;;7.73;57.97;99933.91;4972296;28;20055;-61
2022/11/14 01:07:14;;;;;;;40.28;24.15;;;;;;;7.72;58.02;99939.22;4971974;28;20422;-60
2022/11/14 01:09:41;;;;;;;40.55;23.42;;;;;;;7.69;58.41;99919.22;4972165;28;20554;-60
2022/11/14 01:12:07;;;;;;;42.00;24.38;;;;;;;7.68;58.32;99934.13;4971906;28;20046;-59
2022/11/14 01:14:34;;;;;;;44.42;25.25;;;;;;;7.67;58.28;99929.78;4972373;28;20065;-60
2022/11/14 01:17:00;;;;;;;39.42;22.50;;;;;;;7.67;58.76;99928.94;4972206;28;20055;-60
2022/11/14 01:19:27;;;;;;;40.42;24.08;;;;;;;7.66;58.74;99927.22;4972082;28;20134;-60
2022/11/14 01:21:53;;;;;;;41.80;24.15;;;;;;;7.64;58.72;99923.81;4971979;28;20051;-59
2022/11/14 01:24:20;;;;;;;44.88;24.10;;;;;;;7.63;58.81;99920.34;4972053;28;20058;-60
2022/11/14 01:26:46;;;;;;;40.47;23.20;;;;;;;7.62;58.56;99918.63;4973270;28;20053;-60
2022/11/14 01:29:13;;;;;;;42.00;25.15;;;;;;;7.61;58.83;99914.31;4989802;28;20057;-60
2022/11/14 01:31:41;;;;;;;38.90;22.40;;;;;;;7.61;58.65;99911.69;4991078;28;20046;-60
2022/11/14 01:34:07;;;;;;;40.50;22.60;;;;;;;7.61;58.85;99903.84;4991044;28;20133;-59
2022/11/14 01:36:34;;;;;;;41.20;23.60;;;;;;;7.60;59.12;99904.78;4990981;28;20050;-59
2022/11/14 01:39:00;;;;;;;38.42;21.80;;;;;;;7.60;59.21;99896.91;4991143;28;20039;-60
2022/11/14 01:41:27;;;;;;;39.47;22.88;;;;;;;7.61;58.75;99901.22;4992665;28;20080;-61
2022/11/14 01:43:53;;;;;;;38.40;23.02;;;;;;;7.62;59.17;99895.06;4994865;28;20042;-60
2022/11/14 01:46:40;;;;;;;41.33;24.02;;;;;;;7.59;60.58;99897.81;4994720;28;20057;-59
2022/11/14 01:49:19;;;;;;;36.58;22.20;;;;;;;7.63;60.33;99891.50;4994616;28;20050;-60
2022/11/14 01:51:50;;;;;;;40.85;21.83;;;;;;;7.65;59.52;99878.34;4993358;28;20049;-60
2022/11/14 01:54:25;;;;;;;38.88;22.25;;;;;;;7.64;60.39;99872.28;4994689;28;20065;-60
2022/11/14 01:56:56;;;;;;;35.22;21.70;;;;;;;7.64;59.78;99867.03;4994308;28;20054;-59
2022/11/14 01:59:29;;;;;;;39.78;22.60;;;;;;;7.63;59.50;99867.94;4994495;28;20043;-59
2022/11/14 02:02:02;;;;;;;37.22;22.38;;;;;;;7.65;59.85;99871.34;4994660;28;20046;-61
2022/11/14 02:04:36;;;;;;;37.53;21.08;;;;;;;7.64;60.27;99867.03;4994361;28;20047;-60
2022/11/14 02:07:05;;;;;;;38.13;21.52;;;;;;;7.66;58.89;99866.94;4994337;28;20046;-60
2022/11/14 02:09:36;;;;;;;40.65;22.88;;;;;;;7.64;59.57;99858.31;4994432;28;20057;-59
2022/11/14 02:12:06;;;;;;;36.45;21.45;;;;;;;7.65;59.20;99854.78;4994427;28;20052;-60
2022/11/14 02:14:34;;;;;;;33.95;20.45;;;;;;;7.64;59.23;99858.31;4994201;28;20502;-59
2022/11/14 02:17:02;;;;;;;38.33;20.95;;;;;;;7.63;59.17;99859.25;4993992;28;20042;-60
2022/11/14 02:20:13;;;;;;;36.67;21.63;;;;;;;7.60;60.20;99857.63;4994488;28;20077;-60
2022/11/14 02:22:41;;;;;;;34.67;19.83;;;;;;;7.61;58.99;99840.97;4993124;28;20456;-60
2022/11/14 02:25:10;;;;;;;35.42;21.08;;;;;;;7.59;59.31;99848.03;4993886;28;20065;-60
2022/11/14 02:27:38;;;;;;;37.63;21.08;;;;;;;7.58;59.10;99840.25;4994091;28;20054;-59
2022/11/14 02:30:11;;;;;;;33.60;20.48;;;;;;;7.54;59.38;99840.38;4994163;28;20154;-59
2022/11/14 02:32:38;;;;;;;35.33;20.50;;;;;;;7.55;58.90;99841.22;4994125;28;20050;-60
2022/11/14 02:35:24;;;;;;;32.80;19.73;;;;;;;7.53;59.26;99843.06;4993642;28;20050;-61
2022/11/14 02:37:51;;;;;;;35.45;20.75;;;;;;;7.52;59.30;99841.38;4993942;28;20054;-60
2022/11/14 02:40:18;;;;;;;33.22;21.05;;;;;;;7.49;59.52;99837.13;4993547;28;20530;-59
2022/11/14 02:42:44;;;;;;;34.25;20.48;;;;;;;7.48;59.47;99835.38;4993872;28;20058;-61
2022/11/14 02:45:11;;;;;;;34.67;20.52;;;;;;;7.49;59.54;99836.25;4993719;28;20056;-59
2022/11/14 02:47:38;;;;;;;31.30;19.48;;;;;;;7.47;59.27;99830.25;4993857;28;20233;-58
2022/11/14 02:50:05;;;;;;;32.53;19.75;;;;;;;7.46;59.67;99825.91;4993463;28;20058;-61
2022/11/14 02:52:31;;;;;;;33.38;20.85;;;;;;;7.46;59.47;99825.91;4992984;28;20407;-60
2022/11/14 02:54:58;;;;;;;35.13;20.77;;;;;;;7.46;59.67;99823.28;4993581;28;20409;-60
2022/11/14 02:57:24;;;;;;;32.53;19.75;;;;;;;7.45;59.87;99816.34;4993641;28;20054;-61
2022/11/14 02:59:51;;;;;;;34.05;20.45;;;;;;;7.45;59.45;99814.59;4993548;28;20137;-60
2022/11/14 03:02:17;;;;;;;35.42;19.95;;;;;;;7.43;59.29;99814.66;4993470;28;20128;-59
2022/11/14 03:04:44;;;;;;;32.00;18.25;;;;;;;7.43;59.46;99814.66;4993214;28;20081;-60
2022/11/14 03:07:11;;;;;;;32.33;19.73;;;;;;;7.42;59.51;99815.56;4993112;28;20161;-60
2022/11/14 03:09:37;;;;;;;35.55;20.08;;;;;;;7.41;59.90;99802.53;4993110;28;20431;-60
2022/11/14 03:12:04;;;;;;;32.38;19.10;;;;;;;7.40;59.90;99800.84;4993263;28;20073;-61
2022/11/14 03:14:31;;;;;;;32.22;18.77;;;;;;;7.40;59.95;99803.47;4993230;28;20492;-60
2022/11/14 03:16:57;;;;;;;37.00;20.98;;;;;;;7.40;59.94;99799.06;4991607;28;20050;-60
2022/11/14 03:19:24;;;;;;;33.58;18.98;;;;;;;7.40;59.77;99804.31;4993479;28;20048;-59
2022/11/14 03:21:50;;;;;;;32.45;19.50;;;;;;;7.41;60.06;99800.75;4993269;28;20057;-60
2022/11/14 03:24:17;;;;;;;34.20;20.20;;;;;;;7.42;60.04;99799.88;4993389;28;20054;-60
2022/11/14 03:26:44;;;;;;;32.38;19.40;;;;;;;7.43;60.24;99796.31;4991026;28;20050;-59
2022/11/14 03:29:10;;;;;;;32.28;19.88;;;;;;;7.43;59.87;99796.31;4991341;28;20054;-60
2022/11/14 03:31:37;;;;;;;34.85;19.98;;;;;;;7.46;59.88;99791.84;4990072;28;20060;-60
2022/11/14 03:34:03;;;;;;;32.15;20.40;;;;;;;7.46;59.94;99791.84;4992891;28;20081;-60
2022/11/14 03:36:30;;;;;;;34.70;19.83;;;;;;;7.45;60.14;99788.41;4992725;28;20435;-60
2022/11/14 03:38:56;;;;;;;33.15;19.70;;;;;;;7.43;59.85;99787.59;4992860;28;20060;-59
2022/11/14 03:41:23;;;;;;;35.65;20.23;;;;;;;7.41;59.80;99790.28;4992620;28;20094;-60
2022/11/14 03:43:49;;;;;;;33.05;19.70;;;;;;;7.38;59.90;99790.44;4992630;28;20388;-59
2022/11/14 03:46:16;;;;;;;36.40;20.13;;;;;;;7.37;59.79;99793.94;4992434;28;20061;-59
2022/11/14 03:48:42;;;;;;;33.28;20.35;;;;;;;7.34;59.72;99791.50;4992679;28;20133;-60
2022/11/14 03:51:09;;;;;;;33.05;19.50;;;;;;;7.32;59.89;99792.47;4992568;28;20129;-59
2022/11/14 03:53:35;;;;;;;33.42;19.85;;;;;;;7.30;59.99;99790.75;4992643;28;20134;-59
2022/11/14 03:56:02;;;;;;;33.15;19.58;;;;;;;7.29;59.86;99775.13;4992042;28;20050;-59
2022/11/14 03:58:28;;;;;;;32.78;19.25;;;;;;;7.28;59.82;99776.88;4991750;28;20050;-59
2022/11/14 04:00:56;;;;;;;31.15;18.73;;;;;;;7.27;60.18;99766.47;4992142;28;20062;-61
2022/11/14 04:03:23;;;;;;;28.30;18.55;;;;;;;7.26;60.03;99770.00;4992581;28;20050;-59
2022/11/14 04:09:32;;;;;;;32.28;18.10;;;;;;;7.23;59.99;99765.75;4965346;23;20558;-62
2022/11/14 04:11:58;;;;;;;32.13;19.65;;;;;;;7.22;60.35;99757.97;4971274;28;20065;-61
2022/11/14 04:14:25;;;;;;;29.63;18.05;;;;;;;7.21;60.27;99762.34;4975861;28;20101;-62
2022/11/14 04:16:51;;;;;;;31.45;18.63;;;;;;;7.21;60.09;99758.91;4972227;28;20057;-61
2022/11/14 04:19:18;;;;;;;29.63;17.92;;;;;;;7.21;60.34;99753.66;4972581;28;20061;-62
2022/11/14 04:21:45;;;;;;;30.33;19.15;;;;;;;7.21;60.44;99759.72;4977957;28;20423;-63
2022/11/14 04:24:11;;;;;;;31.75;19.08;;;;;;;7.20;60.21;99742.31;4972385;28;20507;-62
2022/11/14 04:26:38;;;;;;;31.65;19.05;;;;;;;7.23;60.36;99751.81;4972132;28;20063;-62
2022/11/14 04:29:04;;;;;;;31.23;19.33;;;;;;;7.22;60.15;99744.88;4971368;28;20086;-61
2022/11/14 04:31:31;;;;;;;29.30;18.42;;;;;;;7.23;60.25;99746.56;4972796;28;20105;-61
2022/11/14 04:33:57;;;;;;;30.38;18.73;;;;;;;7.20;60.30;99746.69;4972404;28;20415;-62
2022/11/14 04:36:24;;;;;;;30.73;19.85;;;;;;;7.20;60.10;99750.19;4972393;28;20534;-61
2022/11/14 04:38:50;;;;;;;30.15;17.70;;;;;;;7.17;60.13;99743.31;4972079;28;20067;-61
2022/11/14 04:41:17;;;;;;;30.63;18.17;;;;;;;7.15;60.24;99737.28;4972520;28;20062;-60
2022/11/14 04:43:43;;;;;;;29.08;18.50;;;;;;;7.13;59.89;99740.88;4972421;28;20487;-60
2022/11/14 04:46:16;;;;;;;32.38;18.52;;;;;;;7.09;59.89;99724.47;4972484;28;20128;-61
2022/11/14 04:48:42;;;;;;;29.48;17.85;;;;;;;7.08;60.23;99727.16;4972267;28;20484;-61
2022/11/14 04:51:09;;;;;;;29.65;18.20;;;;;;;7.04;60.29;99729.06;4972378;28;20106;-59
2022/11/14 04:53:35;;;;;;;28.30;18.33;;;;;;;7.02;60.33;99715.16;4972189;28;20142;-60
2022/11/14 04:56:02;;;;;;;28.90;18.05;;;;;;;6.99;60.43;99721.38;4972127;28;20141;-61
2022/11/14 04:58:29;;;;;;;32.00;18.52;;;;;;;6.98;60.39;99718.81;4972095;28;20047;-61
2022/11/14 05:00:58;;;;;;;26.77;17.17;;;;;;;6.95;60.08;99713.75;4972192;28;20130;-60
2022/11/14 05:03:25;;;;;;;29.70;18.77;;;;;;;6.94;59.99;99704.16;4970796;28;20455;-60
2022/11/14 05:05:52;;;;;;;31.20;18.65;;;;;;;6.92;60.11;99709.50;4972097;28;20055;-60
2022/11/14 05:08:18;;;;;;;32.40;18.70;;;;;;;6.89;60.17;99707.00;4972043;28;20047;-60
2022/11/14 05:10:45;;;;;;;32.35;18.95;;;;;;;6.86;60.22;99694.91;4972235;28;20050;-60
2022/11/14 05:13:11;;;;;;;30.08;18.20;;;;;;;6.83;60.18;99692.41;4972212;28;20047;-60
2022/11/14 05:15:38;;;;;;;32.67;18.98;;;;;;;6.82;60.41;99689.84;4972523;28;20085;-61
2022/11/14 05:18:04;;;;;;;31.08;19.23;;;;;;;6.79;60.69;99693.44;4975775;28;20076;-60
2022/11/14 05:20:31;;;;;;;29.35;17.83;;;;;;;6.77;60.31;99688.28;4975698;28;20097;-61
2022/11/14 05:22:58;;;;;;;32.53;18.50;;;;;;;6.76;60.42;99688.34;4974434;28;20145;-60
2022/11/14 05:25:24;;;;;;;27.35;16.70;;;;;;;6.74;60.77;99682.34;4975059;28;20504;-60
2022/11/14 05:27:51;;;;;;;29.13;17.83;;;;;;;6.73;60.64;99686.72;4975132;28;20065;-60
2022/11/14 05:30:17;;;;;;;30.80;18.33;;;;;;;6.73;60.89;99681.47;4974779;28;20045;-60
2022/11/14 05:32:44;;;;;;;26.73;16.92;;;;;;;6.73;60.74;99676.25;4974341;28;20503;-60
2022/11/14 05:35:11;;;;;;;28.58;17.60;;;;;;;6.73;60.61;99678.03;4975204;28;20500;-60
2022/11/14 05:37:38;;;;;;;31.30;18.52;;;;;;;6.72;60.89;99674.56;4975094;28;20047;-59
2022/11/14 05:40:05;;;;;;;29.23;17.65;;;;;;;6.73;61.23;99678.03;4974218;28;20070;-60
2022/11/14 05:42:31;;;;;;;32.20;18.45;;;;;;;6.73;61.07;99681.47;4975153;28;20567;-59
2022/11/14 05:44:58;;;;;;;29.55;17.52;;;;;;;6.73;61.05;99680.66;4975333;28;20141;-60
2022/11/14 05:47:25;;;;;;;31.23;18.05;;;;;;;6.73;60.83;99676.25;4975436;28;20057;-61
2022/11/14 05:49:51;;;;;;;26.90;17.17;;;;;;;6.73;61.01;99672.78;4975006;28;20082;-61
2022/11/14 05:52:18;;;;;;;27.05;17.20;;;;;;;6.71;60.96;99675.47;4975395;28;20046;-61
2022/11/14 05:54:44;;;;;;;29.67;17.08;;;;;;;6.71;60.65;99661.53;4974858;28;20454;-61
2022/11/14 05:57:11;;;;;;;30.63;18.77;;;;;;;6.69;60.71;99664.22;4974898;28;20506;-60
2022/11/14 05:59:37;;;;;;;28.58;17.48;;;;;;;6.68;60.73;99682.56;4975115;28;20082;-60
2022/11/14 06:02:04;;;;;;;29.52;17.35;;;;;;;6.64;60.69;99672.28;4974945;28;20461;-61
2022/11/14 06:04:32;;;;;;;28.40;17.42;;;;;;;6.63;60.66;99677.56;4974898;28;20106;-60
2022/11/14 06:06:59;;;;;;;28.70;16.65;;;;;;;6.61;60.81;99692.44;4975952;28;20131;-60
2022/11/14 06:09:25;;;;;;;27.73;17.58;;;;;;;6.59;61.01;99686.44;4977876;28;20817;-60
2022/11/14 06:11:52;;;;;;;31.10;17.88;;;;;;;6.57;60.64;99689.13;4980097;28;20496;-61
2022/11/14 06:14:18;;;;;;;25.75;17.13;;;;;;;6.54;61.00;99684.00;4975066;28;20046;-61
2022/11/14 06:16:45;;;;;;;27.35;16.45;;;;;;;6.52;61.00;99685.84;4974282;28;20043;-61
2022/11/14 06:19:11;;;;;;;28.80;16.77;;;;;;;6.51;60.80;99681.53;4974674;28;20062;-60
2022/11/14 06:21:38;;;;;;;32.38;17.08;;;;;;;6.49;60.95;99691.19;4975173;28;20077;-61
2022/11/14 06:24:05;;;;;;;27.80;16.70;;;;;;;6.48;61.13;99689.50;4967809;28;20478;-60
2022/11/14 06:26:31;;;;;;;28.02;16.63;;;;;;;6.45;61.28;99693.09;4973848;28;20047;-61
2022/11/14 06:28:59;;;;;;;29.58;16.88;;;;;;;6.44;61.12;99691.41;4973538;28;20055;-60
2022/11/14 06:31:26;;;;;;;28.42;16.73;;;;;;;6.43;61.10;99689.69;4972945;28;20047;-60
2022/11/14 06:33:52;;;;;;;28.50;17.92;;;;;;;6.42;60.88;99690.59;4974215;28;20046;-60
2022/11/14 06:36:19;;;;;;;26.83;16.30;;;;;;;6.41;61.29;99688.91;4975281;28;20408;-60
2022/11/14 06:38:45;;;;;;;28.52;16.73;;;;;;;6.41;61.20;99686.28;4973841;28;20073;-60
2022/11/14 06:41:17;;;;;;;33.05;17.13;;;;;;;6.39;61.29;99682.88;4974238;28;20085;-60
2022/11/14 06:43:48;;;;;;;26.13;16.00;;;;;;;6.37;61.60;99680.34;4974612;28;20054;-62
2022/11/14 06:46:17;;;;;;;27.50;16.67;;;;;;;6.37;61.21;99688.19;4973904;28;20530;-61
2022/11/14 06:48:45;;;;;;;28.13;16.67;;;;;;;6.36;61.29;99691.69;4974288;28;20066;-61
2022/11/14 06:51:13;;;;;;;30.85;16.77;;;;;;;6.35;61.36;99682.16;4974182;28;20480;-60
2022/11/14 06:53:41;;;;;;;28.08;16.55;;;;;;;6.34;61.13;99683.09;4974051;28;20050;-61
2022/11/14 06:56:10;;;;;;;28.38;16.48;;;;;;;6.33;61.54;99677.91;4973998;28;20142;-60
2022/11/14 06:58:42;;;;;;;26.73;17.38;;;;;;;6.32;61.22;99678.81;4973733;28;20057;-61
2022/11/14 07:01:13;;;;;;;27.20;16.30;;;;;;;6.30;61.92;99668.44;4974210;28;20082;-61
2022/11/14 07:03:41;;;;;;;26.23;15.88;;;;;;;6.31;61.15;99671.91;4974028;28;20142;-61
2022/11/14 07:06:19;;;;;;;26.83;16.15;;;;;;;6.28;62.44;99674.63;4973575;28;20150;-61
2022/11/14 07:08:45;;;;;;;27.40;17.55;;;;;;;6.30;61.36;99671.03;4973737;28;20073;-61
2022/11/14 07:11:24;;;;;;;26.20;14.85;;;;;;;6.29;61.31;99674.59;4973670;28;20138;-62
2022/11/14 07:13:52;;;;;;;26.77;15.57;;;;;;;6.30;61.15;99678.88;4973419;28;20054;-61
2022/11/14 07:16:20;;;;;;;25.23;16.30;;;;;;;6.31;61.65;99675.34;4973268;28;20050;-61
2022/11/14 07:18:46;;;;;;;27.20;15.95;;;;;;;6.31;61.29;99666.69;4964171;28;20082;-61
2022/11/14 07:21:13;;;;;;;24.05;14.80;;;;;;;6.33;61.24;99668.31;4973630;28;20145;-61
2022/11/14 07:23:40;;;;;;;29.52;17.35;;;;;;;6.31;61.17;99659.66;4973266;28;20051;-61
2022/11/14 07:26:09;;;;;;;27.08;16.45;;;;;;;6.30;61.53;99657.97;4972523;28;20073;-60
2022/11/14 07:28:40;;;;;;;25.90;16.10;;;;;;;6.30;61.72;99654.50;4973336;28;20045;-60
2022/11/14 07:31:12;;;;;;;25.00;15.80;;;;;;;6.30;61.31;99668.44;4972060;28;20156;-62
2022/11/14 07:33:39;;;;;;;24.75;15.93;;;;;;;6.31;61.27;99675.34;4969759;28;20085;-63
2022/11/14 07:36:07;;;;;;;25.50;16.55;;;;;;;6.32;61.48;99677.03;4972039;28;20050;-62
2022/11/14 07:38:35;;;;;;;24.33;15.15;;;;;;;6.32;61.20;99677.03;4971677;28;20046;-62
2022/11/14 07:41:10;;;;;;;26.27;15.38;;;;;;;6.34;61.70;99679.59;4973560;28;20122;-61
2022/11/14 07:43:37;;;;;;;27.60;16.35;;;;;;;6.35;61.27;99665.59;4972549;28;20039;-62
2022/11/14 07:46:15;;;;;;;27.90;16.65;;;;;;;6.31;62.48;99651.81;4971298;28;20050;-61
2022/11/14 07:48:42;;;;;;;25.02;15.60;;;;;;;6.36;61.27;99651.66;4972699;28;20043;-61
2022/11/14 07:51:14;;;;;;;24.85;16.25;;;;;;;6.35;62.07;99650.78;4973696;28;20045;-61
2022/11/14 07:53:40;;;;;;;27.35;16.23;;;;;;;6.37;61.19;99646.38;4973120;28;20134;-60
2022/11/14 07:56:08;;;;;;;29.42;16.70;;;;;;;6.37;61.61;99646.38;4973057;28;20043;-60
2022/11/14 07:58:36;;;;;;;28.17;16.58;;;;;;;6.39;61.81;99656.72;4972481;28;20073;-60
2022/11/14 08:01:04;;;;;;;24.60;15.82;;;;;;;6.40;61.87;99655.84;4972474;28;20134;-60
2022/11/14 08:03:32;;;;;;;27.25;16.67;;;;;;;6.42;61.65;99661.84;4972521;28;20090;-60
2022/11/14 08:06:03;;;;;;;25.35;15.80;;;;;;;6.44;61.82;99653.94;4972440;28;20050;-60
2022/11/14 08:08:30;;;;;;;26.98;16.15;;;;;;;6.46;61.65;99639.03;4972154;28;20141;-60
2022/11/14 08:10:58;;;;;;;27.48;16.73;;;;;;;6.49;61.93;99644.13;4972446;28;20085;-61
2022/11/14 08:13:26;;;;;;;24.80;15.88;;;;;;;6.51;61.89;99652.78;4971219;28;20117;-60
2022/11/14 08:16:02;;;;;;;;;;;;;;;6.53;62.33;99658.78;4972955;28;20054;-61
2022/11/14 08:18:34;;;;;;;21.55;14.02;;;;;;;6.60;61.27;99670.69;4972758;28;19926;-60
2022/11/14 08:21:04;;;;;;;26.60;16.08;;;;;;;6.61;62.10;99659.31;4972694;28;20141;-62
2022/11/14 08:23:31;;;;;;;28.00;16.20;;;;;;;6.64;61.66;99666.19;4972803;28;20050;-60
2022/11/14 08:25:58;;;;;;;26.45;16.77;;;;;;;6.67;61.64;99662.56;4972401;28;20511;-60
2022/11/14 08:28:25;;;;;;;25.25;15.30;;;;;;;6.71;62.03;99675.47;4972303;28;20423;-61
2022/11/14 08:30:51;;;;;;;26.77;16.20;;;;;;;6.74;61.88;99677.09;4972684;28;20093;-60
2022/11/14 08:33:18;;;;;;;26.27;15.57;;;;;;;6.77;62.05;99669.13;4972461;28;20050;-60
2022/11/14 08:35:44;;;;;;;26.80;17.13;;;;;;;6.80;62.03;99674.22;4972301;28;20051;-60
2022/11/14 08:38:11;;;;;;;27.98;17.33;;;;;;;6.84;61.80;99681.03;4972264;28;20819;-60
2022/11/14 08:40:38;;;;;;;28.15;16.60;;;;;;;6.87;61.70;99678.28;4972324;28;20093;-61
2022/11/14 08:43:05;;;;;;;26.60;16.15;;;;;;;6.90;61.98;99662.47;4972302;28;20043;-61
2022/11/14 08:45:31;;;;;;;28.48;16.85;;;;;;;6.96;61.86;99668.34;4972356;28;20392;-60
2022/11/14 08:47:58;;;;;;;27.38;15.48;;;;;;;6.98;62.17;99664.72;4972408;28;20411;-60
2022/11/14 08:50:24;;;;;;;26.25;15.90;;;;;;;7.02;62.12;99668.06;4972539;28;20061;-61
2022/11/14 08:52:51;;;;;;;27.50;16.23;;;;;;;7.06;62.18;99667.00;4976604;28;20129;-60
2022/11/14 08:55:19;;;;;;;25.55;16.10;;;;;;;7.09;62.05;99664.25;4976071;28;20046;-61
2022/11/14 08:57:46;;;;;;;26.15;16.08;;;;;;;7.13;61.96;99663.22;4976356;28;20053;-61
2022/11/14 09:00:16;;;;;;;26.35;17.02;;;;;;;7.17;62.08;99667.41;4976166;28;20051;-60
2022/11/14 09:02:42;;;;;;;26.33;16.70;;;;;;;7.22;62.18;99661.09;4976270;28;20185;-60
2022/11/14 09:05:09;;;;;;;25.92;15.80;;;;;;;7.25;62.22;99664.44;4975998;28;20469;-61
2022/11/14 09:07:36;;;;;;;26.83;16.58;;;;;;;7.29;61.94;99670.41;4975876;28;20102;-60
2022/11/14 09:10:04;;;;;;;24.50;15.55;;;;;;;7.32;62.13;99667.63;4976168;28;20072;-60
2022/11/14 09:12:32;;;;;;;26.48;15.60;;;;;;;7.37;62.14;99649.91;4975911;28;20074;-60
2022/11/14 09:14:59;;;;;;;24.77;16.77;;;;;;;7.42;62.01;99653.22;4976032;28;20157;-60
2022/11/14 09:17:25;;;;;;;24.65;15.63;;;;;;;7.47;62.09;99652.16;4975756;28;20066;-61
2022/11/14 09:19:52;;;;;;;26.58;16.15;;;;;;;7.53;61.96;99654.47;4975837;28;20055;-60
2022/11/14 09:22:19;;;;;;;25.20;15.43;;;;;;;7.56;61.67;99657.78;4975729;28;20050;-60
2022/11/14 09:24:46;;;;;;;25.95;16.00;;;;;;;7.61;61.96;99665.44;4975854;28;20055;-60
2022/11/14 09:27:13;;;;;;;23.77;15.93;;;;;;;7.65;61.79;99664.38;4975471;28;20046;-60
2022/11/14 09:29:39;;;;;;;26.40;15.40;;;;;;;7.70;61.75;99656.28;4975949;28;20180;-61
2022/11/14 09:32:06;;;;;;;22.60;15.00;;;;;;;7.74;61.63;99655.22;4975869;28;20125;-60
2022/11/14 09:34:33;;;;;;;28.48;16.77;;;;;;;7.78;61.68;99648.94;4975526;28;20512;-60
2022/11/14 09:36:59;;;;;;;25.45;15.13;;;;;;;7.82;62.07;99645.25;4975593;28;20133;-60
2022/11/14 09:39:26;;;;;;;25.42;16.00;;;;;;;7.88;62.04;99651.97;4975696;28;20061;-61
2022/11/14 09:42:20;;;;;;;23.27;14.90;;;;;;;7.90;62.59;99649.28;4975422;28;20145;-60
2022/11/14 09:44:55;;;;;;;23.58;15.20;;;;;;;8.00;62.32;99653.16;4975292;28;20388;-60
2022/11/14 09:47:27;;;;;;;22.45;15.15;;;;;;;8.04;61.90;99648.63;4975155;28;20053;-60
2022/11/14 09:50:01;;;;;;;24.55;15.63;;;;;;;8.10;61.75;99653.56;4975403;28;20061;-62
2022/11/14 09:52:37;;;;;;;23.17;15.02;;;;;;;8.14;62.13;99647.25;4975218;28;20046;-60
2022/11/14 09:55:26;;;;;;;22.48;14.55;;;;;;;8.20;62.13;99651.34;4975243;28;20053;-61
2022/11/14 09:58:01;;;;;;;23.40;14.65;;;;;;;8.31;61.61;99650.81;4975194;28;20051;-61
2022/11/14 10:00:50;;;;;;;20.40;14.45;;;;;;;8.34;62.09;99645.44;4975035;28;20046;-62
2022/11/14 10:03:57;;;;;;;23.02;14.98;;;;;;;8.42;62.02;99642.41;4974917;28;20133;-61
2022/11/14 10:06:34;;;;;;;18.85;13.02;;;;;;;8.50;61.44;99636.78;4945898;28;20396;-61
2022/11/14 10:09:03;;;;;;;22.45;14.30;;;;;;;8.56;61.28;99637.34;5116228;23;20046;-59
2022/11/14 10:11:48;;;;;;;21.40;14.68;;;;;;;8.59;61.52;99620.59;4994467;28;20053;-60
2022/11/14 10:14:27;;;;;;;23.17;14.52;;;;;;;8.66;61.18;99619.38;4995046;28;20054;-59
2022/11/14 10:17:10;;;;;;;19.48;14.32;;;;;;;8.70;61.47;99613.03;4994474;28;20072;-60
2022/11/14 10:19:43;;;;;;;22.02;14.15;;;;;;;8.78;61.56;99628.38;4994127;28;20531;-59
2022/11/14 10:22:47;;;;;;;22.48;14.77;;;;;;;8.84;61.66;99604.47;4994268;28;20047;-60
2022/11/14 10:25:16;;;;;;;;;;;;;;;8.97;61.34;99595.94;4994678;28;20101;-59
2022/11/14 10:28:23;;;;;;;20.52;13.07;;;;;;;9.07;61.48;99594.50;4976716;28;19928;-59
2022/11/14 10:31:02;;;;;;;18.73;12.55;;;;;;;9.19;61.39;99579.03;4954364;28;20046;-59
2022/11/14 10:33:52;;;;;;;24.20;14.93;;;;;;;9.28;61.35;99582.91;4994094;28;20046;-59
2022/11/14 10:36:40;;;;;;;21.65;14.45;;;;;;;9.39;61.63;99584.03;4994141;28;20061;-59
2022/11/14 10:39:20;;;;;;;19.38;13.75;;;;;;;9.52;61.44;99593.84;4993833;28;20057;-59
2022/11/14 10:41:51;;;;;;;20.20;14.00;;;;;;;9.67;61.16;99584.28;4994062;28;20061;-59
2022/11/14 10:44:37;;;;;;;22.10;14.23;;;;;;;9.82;61.03;99574.69;4993909;28;20509;-59
2022/11/14 10:47:09;;;;;;;20.38;13.90;;;;;;;9.97;60.95;99572.94;4994314;28;20050;-60
2022/11/14 10:49:36;;;;;;;19.98;14.52;;;;;;;10.14;61.03;99571.13;4976469;28;20451;-59
2022/11/14 10:52:13;;;;;;;22.63;14.10;;;;;;;10.28;60.83;99583.50;4993789;28;20054;-60
2022/11/14 10:54:59;;;;;;;20.50;14.40;;;;;;;10.46;60.71;99591.28;4993697;28;20051;-59
2022/11/14 10:57:27;;;;;;;19.15;13.65;;;;;;;10.67;60.64;99570.69;4993621;28;20402;-59
2022/11/14 10:59:54;;;;;;;21.58;14.30;;;;;;;10.91;61.28;99570.13;4993379;28;20051;-59
2022/11/14 11:02:22;;;;;;;19.63;13.80;;;;;;;11.17;61.70;99594.88;4993602;28;20089;-60
2022/11/14 11:04:48;;;;;;;21.13;15.43;;;;;;;11.53;62.83;99591.78;4993259;28;20051;-59
2022/11/14 11:13:04;;;;;;;16.92;13.32;;;;;;;13.41;63.65;99586.31;4993000;28;20046;-59
2022/11/14 11:15:39;;;;;;;16.38;12.88;;;;;;;14.13;60.41;99582.03;4992874;28;20101;-59
2022/11/14 11:18:28;;;;;;;17.05;13.93;;;;;;;14.91;58.80;99580.66;4993305;28;20050;-60
2022/11/14 11:21:09;;;;;;;15.85;13.13;;;;;;;15.68;57.56;99573.69;4993515;28;20057;-60
2022/11/14 11:23:53;;;;;;;14.60;12.80;;;;;;;16.40;56.58;99579.31;4993244;28;20050;-59
2022/11/14 11:26:31;;;;;;;15.20;12.55;;;;;;;17.12;54.89;99564.44;4992814;28;20557;-60
2022/11/14 11:29:09;;;;;;;15.80;12.73;;;;;;;17.78;53.48;99563.03;4993188;28;20054;-59
2022/11/14 11:31:48;;;;;;;13.63;12.23;;;;;;;18.40;52.33;99556.56;4992974;28;20054;-59
2022/11/14 11:34:21;;;;;;;13.23;11.82;;;;;;;18.99;51.66;99560.88;4992996;28;20510;-60
2022/11/14 11:36:54;;;;;;;13.38;11.98;;;;;;;19.55;50.84;99557.34;4992650;28;20054;-59
2022/11/14 11:39:28;;;;;;;13.15;11.23;;;;;;;20.04;49.41;99568.50;4993242;28;20141;-60
2022/11/14 11:41:59;;;;;;;12.90;11.32;;;;;;;20.58;48.66;99553.38;4992940;28;20061;-60
2022/11/14 11:44:43;;;;;;;11.55;10.27;;;;;;;21.09;46.92;99545.44;4992945;28;20083;-60